createdAt,value
2018-10-21T00:00:10.974Z,99161.09
2018-10-21T00:02:39.649Z,99157.26
2018-10-21T00:05:09.735Z,99151.70
2018-10-21T00:07:39.032Z,99155.19
2018-10-21T00:10:09.066Z,99150.28
2018-10-21T00:12:38.470Z,99152.09
2018-10-21T00:15:09.070Z,99155.02
2018-10-21T00:17:37.718Z,99151.52
2018-10-21T00:20:07.245Z,99157.69
2018-10-21T00:22:36.058Z,99151.47
2018-10-21T00:25:05.113Z,99150.13
2018-10-21T00:27:33.826Z,99150.98
2018-10-21T00:30:02.570Z,99140.52
2018-10-21T00:32:36.355Z,99142.91
2018-10-21T00:35:05.627Z,99141.80
2018-10-21T00:37:34.281Z,99144.36
2018-10-21T00:40:02.961Z,99150.23
2018-10-21T00:42:31.746Z,99142.91
2018-10-21T00:45:00.450Z,99139.34
2018-10-21T00:47:29.194Z,99132.90
2018-10-21T00:49:58.194Z,99138.50
2018-10-21T00:52:27.473Z,99141.01
2018-10-21T00:54:56.133Z,99152.21
2018-10-21T00:57:24.804Z,99156.88
2018-10-21T00:59:53.610Z,99156.34
2018-10-21T01:16:35.521Z,99164.17
2018-10-21T01:19:04.557Z,99160.55
2018-10-21T01:21:33.373Z,99156.31
2018-10-21T01:24:02.326Z,99154.20
2018-10-21T01:26:31.069Z,99149.91
2018-10-21T01:28:59.794Z,99148.92
2018-10-21T01:31:28.558Z,99151.31
2018-10-21T01:33:57.306Z,99133.48
2018-10-21T01:36:26.529Z,99144.78
2018-10-21T01:38:55.096Z,99143.36
2018-10-21T01:43:58.429Z,99147.74
2018-10-21T01:54:59.153Z,99138.02
2018-10-21T01:57:27.818Z,99133.78
2018-10-21T01:59:56.905Z,99123.26
2018-10-21T02:02:26.091Z,99122.77
2018-10-21T02:04:54.852Z,99128.77
2018-10-21T02:07:23.598Z,99117.75
2018-10-21T02:09:52.636Z,99123.66
2018-10-21T02:12:21.982Z,99119.38
2018-10-21T02:14:51.170Z,99129.38
2018-10-21T02:17:20.283Z,99126.43
2018-10-21T02:19:49.568Z,99138.61
2018-10-21T02:22:18.712Z,99132.41
2018-10-21T02:24:47.660Z,99133.75
2018-10-21T02:27:16.982Z,99132.95
2018-10-21T02:29:45.713Z,99134.12
2018-10-21T02:32:14.476Z,99122.35
2018-10-21T02:34:43.224Z,99124.78
2018-10-21T02:37:11.963Z,99123.14
2018-10-21T02:39:40.714Z,99134.94
2018-10-21T02:42:09.454Z,99134.39
2018-10-21T02:44:38.243Z,99132.16
2018-10-21T02:47:07.173Z,99141.57
2018-10-21T02:49:35.983Z,99150.02
2018-10-21T02:52:08.696Z,99146.27
2018-10-21T02:54:37.762Z,99148.64
2018-10-21T02:57:08.151Z,99153.44
2018-10-21T02:59:37.181Z,99156.64
2018-10-21T03:02:06.141Z,99152.40
2018-10-21T03:04:34.925Z,99152.95
2018-10-21T03:07:03.686Z,99157.81
2018-10-21T03:09:32.742Z,99150.00
2018-10-21T03:12:01.591Z,99145.50
2018-10-21T03:14:30.326Z,99155.53
2018-10-21T03:16:59.338Z,99154.99
2018-10-21T03:19:28.065Z,99153.13
2018-10-21T03:21:56.754Z,99154.80
2018-10-21T03:24:25.461Z,99157.18
2018-10-21T03:26:54.168Z,99153.73
2018-10-21T03:29:22.915Z,99162.34
2018-10-21T03:31:51.655Z,99165.56
2018-10-21T03:34:20.390Z,99162.14
2018-10-21T03:36:49.047Z,99168.88
2018-10-21T03:39:17.954Z,99169.41
2018-10-21T03:41:46.694Z,99172.38
2018-10-21T03:44:15.342Z,99171.89
2018-10-21T03:46:44.046Z,99166.79
2018-10-21T03:49:12.864Z,99166.47
2018-10-21T03:51:41.566Z,99162.44
2018-10-21T03:54:10.358Z,99160.96
2018-10-21T03:56:39.102Z,99157.46
2018-10-21T03:59:07.869Z,99158.27
2018-10-21T04:01:36.601Z,99154.48
2018-10-21T04:04:05.736Z,99155.63
2018-10-21T04:06:34.670Z,99151.52
2018-10-21T04:09:03.525Z,99145.34
2018-10-21T04:11:32.323Z,99148.25
2018-10-21T04:14:01.086Z,99144.48
2018-10-21T04:16:29.855Z,99143.88
2018-10-21T04:18:58.845Z,99133.84
2018-10-21T04:21:27.611Z,99134.02
2018-10-21T04:23:56.237Z,99135.37
2018-10-21T04:26:25.046Z,99130.45
2018-10-21T04:28:53.774Z,99132.52
2018-10-21T04:31:22.501Z,99127.08
2018-10-21T04:33:51.467Z,99131.99
2018-10-21T04:36:22.110Z,99129.02
2018-10-21T04:40:10.340Z,99130.52
2018-10-21T04:42:39.015Z,99123.73
2018-10-21T04:45:08.463Z,99129.45
2018-10-21T04:47:37.200Z,99130.13
2018-10-21T04:50:07.256Z,99128.20
2018-10-21T04:52:36.024Z,99127.34
2018-10-21T04:55:06.590Z,99130.99
2018-10-21T04:57:36.541Z,99138.74
2018-10-21T05:00:07.710Z,99138.11
2018-10-21T05:02:36.659Z,99136.94
2018-10-21T05:05:06.106Z,99128.00
2018-10-21T05:07:34.883Z,99132.89
2018-10-21T05:10:03.830Z,99125.95
2018-10-21T05:12:32.527Z,99132.61
2018-10-21T05:15:01.477Z,99131.85
2018-10-21T05:17:30.363Z,99131.05
2018-10-21T05:19:59.022Z,99129.77
2018-10-21T05:22:27.858Z,99132.30
2018-10-21T05:24:56.529Z,99130.79
2018-10-21T05:27:25.245Z,99129.80
2018-10-21T05:29:54.121Z,99126.59
2018-10-21T05:32:22.840Z,99125.75
2018-10-21T05:34:51.552Z,99123.55
2018-10-21T05:37:20.301Z,99127.47
2018-10-21T05:39:48.951Z,99134.98
2018-10-21T05:42:17.732Z,99136.33
2018-10-21T05:44:46.407Z,99139.02
2018-10-21T05:47:15.264Z,99135.52
2018-10-21T05:49:43.849Z,99137.56
2018-10-21T05:52:12.885Z,99137.62
2018-10-21T05:54:41.522Z,99136.75
2018-10-21T05:57:10.254Z,99137.45
2018-10-21T05:59:39.215Z,99143.16
2018-10-21T06:02:07.958Z,99154.61
2018-10-21T06:04:36.620Z,99158.64
2018-10-21T06:07:05.720Z,99166.55
2018-10-21T06:09:34.511Z,99179.77
2018-10-21T06:12:03.334Z,99185.69
2018-10-21T06:14:32.078Z,99185.32
2018-10-21T06:17:36.398Z,99189.09
2018-10-21T06:20:12.610Z,99185.25
2018-10-21T06:22:43.846Z,99197.83
2018-10-21T06:25:12.533Z,99197.27
2018-10-21T06:27:41.512Z,99202.47
2018-10-21T06:30:11.703Z,99205.56
2018-10-21T06:32:40.649Z,99205.94
2018-10-21T06:35:10.181Z,99210.93
2018-10-21T06:37:39.381Z,99203.54
2018-10-21T06:40:10.306Z,99203.20
2018-10-21T06:42:39.241Z,99201.86
2018-10-21T06:45:09.609Z,99204.09
2018-10-21T06:47:38.388Z,99206.88
2018-10-21T06:50:09.229Z,99207.02
2018-10-21T06:52:38.122Z,99213.55
2018-10-21T06:55:07.101Z,99218.19
2018-10-21T06:57:35.793Z,99224.70
2018-10-21T07:00:04.770Z,99230.07
2018-10-21T07:02:33.606Z,99234.49
2018-10-21T07:05:02.358Z,99233.52
2018-10-21T07:07:31.041Z,99236.20
2018-10-21T07:09:59.854Z,99237.68
2018-10-21T07:12:28.575Z,99234.52
2018-10-21T07:14:57.474Z,99222.44
2018-10-21T07:17:26.486Z,99220.89
2018-10-21T07:19:55.203Z,99222.31
2018-10-21T07:22:23.930Z,99230.73
2018-10-21T07:24:52.730Z,99231.29
2018-10-21T07:27:21.492Z,99225.88
2018-10-21T07:29:50.259Z,99227.84
2018-10-21T07:32:19.059Z,99232.69
2018-10-21T07:34:47.867Z,99229.65
2018-10-21T07:37:16.636Z,99225.17
2018-10-21T07:39:45.288Z,99229.00
2018-10-21T07:42:14.211Z,99231.72
2018-10-21T07:44:49.147Z,99233.22
2018-10-21T07:47:17.862Z,99239.83
2018-10-21T07:49:46.637Z,99241.19
2018-10-21T07:52:15.529Z,99235.48
2018-10-21T07:54:46.166Z,99241.27
2018-10-21T07:57:16.326Z,99240.99
2018-10-21T07:59:45.409Z,99240.39
2018-10-21T08:02:14.082Z,99232.61
2018-10-21T08:04:42.771Z,99227.61
2018-10-21T08:07:22.578Z,99235.06
2018-10-21T08:09:51.966Z,99233.77
2018-10-21T08:12:20.931Z,99230.09
2018-10-21T08:14:49.767Z,99233.61
2018-10-21T08:17:18.496Z,99226.83
2018-10-21T08:19:47.146Z,99233.92
2018-10-21T08:22:15.952Z,99238.51
2018-10-21T08:24:44.685Z,99228.70
2018-10-21T08:27:13.460Z,99233.61
2018-10-21T08:29:42.172Z,99224.89
2018-10-21T08:32:10.951Z,99224.23
2018-10-21T08:34:39.603Z,99225.77
2018-10-21T08:37:08.382Z,99236.42
2018-10-21T08:39:37.166Z,99228.92
2018-10-21T08:42:05.895Z,99227.05
2018-10-21T08:44:34.654Z,99227.90
2018-10-21T08:47:03.328Z,99225.47
2018-10-21T08:49:32.083Z,99229.02
2018-10-21T08:52:00.909Z,99226.62
2018-10-21T08:54:29.553Z,99223.37
2018-10-21T08:56:58.447Z,99219.30
2018-10-21T08:59:27.233Z,99218.51
2018-10-21T09:01:56.482Z,99211.77
2018-10-21T09:04:25.258Z,99217.16
2018-10-21T09:06:54.270Z,99213.89
2018-10-21T09:09:23.042Z,99219.30
2018-10-21T09:11:51.715Z,99208.78
2018-10-21T09:14:20.439Z,99210.14
2018-10-21T09:16:49.222Z,99209.06
2018-10-21T09:19:18.081Z,99203.95
2018-10-21T09:21:46.857Z,99204.68
2018-10-21T09:24:15.534Z,99201.17
2018-10-21T09:26:44.377Z,99193.08
2018-10-21T09:29:13.229Z,99193.84
2018-10-21T09:31:42.029Z,99191.63
2018-10-21T09:34:10.884Z,99192.70
2018-10-21T09:36:39.834Z,99192.95
2018-10-21T09:39:12.042Z,99189.70
2018-10-21T09:41:41.039Z,99198.61
2018-10-21T09:44:10.714Z,99191.70
2018-10-21T09:46:39.938Z,99184.69
2018-10-21T09:49:09.654Z,99191.86
2018-10-21T09:51:38.750Z,99192.33
2018-10-21T09:54:07.576Z,99190.58
2018-10-21T09:56:36.751Z,99187.07
2018-10-21T09:59:05.945Z,99186.75
2018-10-21T10:01:39.907Z,99185.91
2018-10-21T10:04:09.358Z,99180.98
2018-10-21T10:06:38.106Z,99182.95
2018-10-21T10:09:09.681Z,99176.72
2018-10-21T10:11:38.366Z,99170.73
2018-10-21T10:14:07.165Z,99166.56
2018-10-21T10:16:36.164Z,99173.46
2018-10-21T10:19:05.406Z,99172.33
2018-10-21T10:21:34.155Z,99174.23
2018-10-21T10:24:02.890Z,99176.02
2018-10-21T10:26:31.830Z,99178.00
2018-10-21T10:29:00.603Z,99168.77
2018-10-21T10:31:29.307Z,99165.65
2018-10-21T10:33:58.093Z,99161.84
2018-10-21T10:36:26.764Z,99152.52
2018-10-21T10:38:55.514Z,99157.52
2018-10-21T10:41:24.203Z,99155.82
2018-10-21T10:43:52.839Z,99150.10
2018-10-21T10:46:21.729Z,99141.30
2018-10-21T10:48:50.501Z,99142.17
2018-10-21T10:51:19.350Z,99143.08
2018-10-21T10:53:48.106Z,99140.98
2018-10-21T10:56:16.809Z,99133.83
2018-10-21T10:58:45.517Z,99133.29
2018-10-21T11:01:14.339Z,99136.42
2018-10-21T11:03:43.002Z,99130.05
2018-10-21T11:06:11.690Z,99122.91
2018-10-21T11:08:40.646Z,99116.97
2018-10-21T11:11:09.379Z,99123.92
2018-10-21T11:13:38.222Z,99120.58
2018-10-21T11:16:07.503Z,99108.97
2018-10-21T11:18:36.254Z,99107.44
2018-10-21T11:21:05.326Z,99107.05
2018-10-21T11:23:34.087Z,99105.81
2018-10-21T11:26:03.461Z,99098.91
2018-10-21T11:28:32.282Z,99087.98
2018-10-21T11:31:01.075Z,99079.69
2018-10-21T11:33:29.850Z,99082.16
2018-10-21T11:35:58.511Z,99083.03
2018-10-21T11:38:27.338Z,99080.02
2018-10-21T11:40:55.993Z,99079.69
2018-10-21T11:43:24.927Z,99075.17
2018-10-21T11:45:53.618Z,99072.86
2018-10-21T11:48:22.353Z,99076.02
2018-10-21T11:50:51.138Z,99064.92
2018-10-21T11:53:20.085Z,99062.12
2018-10-21T11:55:48.973Z,99051.55
2018-10-21T11:58:18.111Z,99047.44
2018-10-21T12:00:47.167Z,99048.98
2018-10-21T12:03:16.133Z,99045.92
2018-10-21T12:05:44.926Z,99041.78
2018-10-21T12:08:14.086Z,99041.67
2018-10-21T12:10:42.793Z,99037.14
2018-10-21T12:13:11.637Z,99044.23
2018-10-21T12:15:40.304Z,99035.63
2018-10-21T12:18:09.490Z,99029.78
2018-10-21T12:20:39.097Z,99034.52
2018-10-21T12:23:08.010Z,99032.34
2018-10-21T12:25:43.184Z,99033.84
2018-10-21T12:28:11.935Z,99030.75
2018-10-21T12:30:40.618Z,99032.55
2018-10-21T12:33:09.306Z,99026.84
2018-10-21T12:35:38.219Z,99024.09
2018-10-21T12:38:06.934Z,99020.66
2018-10-21T12:40:35.638Z,99010.42
2018-10-21T12:43:04.602Z,99013.50
2018-10-21T12:45:33.459Z,99011.91
2018-10-21T12:48:02.229Z,99013.70
2018-10-21T12:50:31.048Z,99016.20
2018-10-21T12:52:59.862Z,99013.52
2018-10-21T12:55:28.530Z,99002.57
2018-10-21T12:57:57.328Z,98996.73
2018-10-21T13:00:26.189Z,98994.78
2018-10-21T13:02:54.868Z,98995.63
2018-10-21T13:05:23.625Z,98998.97
2018-10-21T13:07:52.462Z,99004.28
2018-10-21T13:10:21.282Z,99000.47
2018-10-21T13:12:50.309Z,98994.69
2018-10-21T13:15:18.990Z,98993.22
2018-10-21T13:17:47.702Z,98991.95
2018-10-21T13:20:16.449Z,98986.83
2018-10-21T13:22:45.221Z,98992.70
2018-10-21T13:25:14.091Z,98986.25
2018-10-21T13:27:42.754Z,98983.64
2018-10-21T13:30:11.609Z,98981.09
2018-10-21T13:32:40.381Z,98978.28
2018-10-21T13:35:09.130Z,98972.91
2018-10-21T13:37:38.027Z,98969.11
2018-10-21T13:40:07.199Z,98971.89
2018-10-21T13:42:36.007Z,98973.88
2018-10-21T13:45:04.818Z,98968.58
2018-10-21T13:47:33.629Z,98972.31
2018-10-21T13:50:02.274Z,98966.75
2018-10-21T13:52:31.006Z,98970.14
2018-10-21T13:54:59.642Z,98968.09
2018-10-21T13:57:28.306Z,98956.81
2018-10-21T13:59:56.973Z,98949.41
2018-10-21T14:02:25.752Z,98955.70
2018-10-21T14:04:54.509Z,98959.06
2018-10-21T14:07:23.385Z,98959.78
2018-10-21T14:09:52.195Z,98961.64
2018-10-21T14:12:20.957Z,98957.43
2018-10-21T14:14:49.848Z,98954.39
2018-10-21T14:17:18.746Z,98958.84
2018-10-21T14:19:47.547Z,98952.98
2018-10-21T14:22:16.372Z,98947.72
2018-10-21T14:24:45.144Z,98950.38
2018-10-21T14:27:13.895Z,98947.99
2018-10-21T14:29:42.608Z,98948.05
2018-10-21T14:32:11.347Z,98943.75
2018-10-21T14:34:40.179Z,98946.95
2018-10-21T14:37:08.872Z,98946.78
2018-10-21T14:39:37.568Z,98949.41
2018-10-21T14:42:06.431Z,98940.91
2018-10-21T14:44:36.884Z,98938.66
2018-10-21T14:47:05.826Z,98943.80
2018-10-21T14:49:34.749Z,98946.53
2018-10-21T14:52:03.523Z,98947.48
2018-10-21T14:54:32.286Z,98950.06
2018-10-21T14:57:01.433Z,98946.61
2018-10-21T14:59:30.226Z,98947.01
2018-10-21T15:01:59.321Z,98953.71
2018-10-21T15:04:28.145Z,98951.66
2018-10-21T15:06:56.959Z,98948.98
2018-10-21T15:09:25.735Z,98951.67
2018-10-21T15:11:54.418Z,98941.84
2018-10-21T15:14:23.110Z,98940.28
2018-10-21T15:16:51.956Z,98941.52
2018-10-21T15:19:20.749Z,98938.44
2018-10-21T15:21:49.762Z,98941.53
2018-10-21T15:24:18.473Z,98943.73
2018-10-21T15:26:47.174Z,98940.20
2018-10-21T15:29:16.004Z,98937.91
2018-10-21T15:31:44.659Z,98940.73
2018-10-21T15:34:13.595Z,98941.45
2018-10-21T15:36:42.401Z,98941.94
2018-10-21T15:39:11.806Z,98941.63
2018-10-21T15:41:40.844Z,98939.73
2018-10-21T15:44:09.984Z,98930.27
2018-10-21T15:46:38.937Z,98935.44
2018-10-21T15:49:07.666Z,98942.20
2018-10-21T15:51:36.468Z,98939.03
2018-10-21T15:54:05.490Z,98941.40
2018-10-21T15:56:34.465Z,98942.09
2018-10-21T15:59:03.367Z,98941.50
2018-10-21T16:01:32.097Z,98941.81
2018-10-21T16:04:00.828Z,98945.21
2018-10-21T16:06:29.569Z,98946.12
2018-10-21T16:08:58.523Z,98944.09
2018-10-21T16:11:27.362Z,98944.50
2018-10-21T16:13:56.234Z,98938.45
2018-10-21T16:16:24.934Z,98944.89
2018-10-21T16:18:53.732Z,98951.35
2018-10-21T16:21:22.487Z,98949.75
2018-10-21T16:23:51.203Z,98961.21
2018-10-21T16:26:20.093Z,98955.59
2018-10-21T16:28:48.835Z,98959.02
2018-10-21T16:31:17.547Z,98962.94
2018-10-21T16:33:46.262Z,98962.55
2018-10-21T16:36:15.033Z,98962.38
2018-10-21T16:38:43.917Z,98963.78
2018-10-21T16:41:12.662Z,98964.04
2018-10-21T16:43:41.464Z,98965.27
2018-10-21T16:46:10.183Z,98968.89
2018-10-21T16:48:38.964Z,98970.59
2018-10-21T16:51:08.212Z,98977.44
2018-10-21T16:53:36.908Z,98968.47
2018-10-21T16:56:05.877Z,98972.03
2018-10-21T16:58:34.633Z,98970.49
2018-10-21T17:01:03.532Z,98974.59
2018-10-21T17:03:32.272Z,98977.87
2018-10-21T17:06:01.805Z,98975.75
2018-10-21T17:08:30.586Z,98975.31
2018-10-21T17:10:59.388Z,98977.50
2018-10-21T17:13:28.090Z,98977.03
2018-10-21T17:15:56.917Z,98973.52
2018-10-21T17:18:25.687Z,98976.00
2018-10-21T17:20:54.515Z,98971.50
2018-10-21T17:23:23.386Z,98974.59
2018-10-21T17:25:52.195Z,98976.46
2018-10-21T17:28:20.995Z,98974.63
2018-10-21T17:30:49.803Z,98972.03
2018-10-21T17:33:18.494Z,98971.83
2018-10-21T17:35:47.359Z,98972.42
2018-10-21T17:38:16.047Z,98974.66
2018-10-21T17:40:44.897Z,98980.40
2018-10-21T17:43:13.540Z,98978.52
2018-10-21T17:45:42.245Z,98975.27
2018-10-21T17:48:11.201Z,98972.87
2018-10-21T17:50:40.014Z,98968.59
2018-10-21T17:53:08.861Z,98967.02
2018-10-21T17:55:37.612Z,98968.91
2018-10-21T17:58:06.414Z,98970.22
2018-10-21T18:00:35.095Z,98979.00
2018-10-21T18:03:03.760Z,98978.99
2018-10-21T18:05:32.637Z,98976.05
2018-10-21T18:08:01.599Z,98984.68
2018-10-21T18:10:30.337Z,98986.66
2018-10-21T18:12:59.318Z,98987.44
2018-10-21T18:15:27.955Z,98987.73
2018-10-21T18:17:56.878Z,98990.96
2018-10-21T18:20:25.635Z,98983.42
2018-10-21T18:22:54.466Z,98988.55
2018-10-21T18:25:23.274Z,98986.41
2018-10-21T18:27:51.933Z,98988.58
2018-10-21T18:30:20.723Z,98986.67
2018-10-21T18:32:49.485Z,98980.50
2018-10-21T18:35:18.244Z,98985.09
2018-10-21T18:37:47.021Z,98992.64
2018-10-21T18:40:15.853Z,98994.26
2018-10-21T18:42:44.732Z,98987.23
2018-10-21T18:45:14.736Z,98995.87
2018-10-21T18:47:44.113Z,98988.05
2018-10-21T18:50:14.257Z,98991.53
2018-10-21T18:52:43.144Z,98986.69
2018-10-21T18:55:12.365Z,98985.06
2018-10-21T18:57:41.328Z,98991.28
2018-10-21T19:00:13.793Z,98981.85
2018-10-21T19:02:42.641Z,98984.50
2018-10-21T19:05:12.038Z,98978.27
2018-10-21T19:07:40.790Z,98987.22
2018-10-21T19:10:11.831Z,98989.91
2018-10-21T19:12:40.664Z,98982.08
2018-10-21T19:15:10.871Z,98994.16
2018-10-21T19:17:40.033Z,98996.32
2018-10-21T19:20:11.186Z,98995.75
2018-10-21T19:22:40.070Z,98998.19
2018-10-21T19:25:10.359Z,99004.33
2018-10-21T19:27:39.189Z,98999.48
2018-10-21T19:30:09.130Z,98994.31
2018-10-21T19:32:37.938Z,99001.28
2018-10-21T19:35:07.611Z,99002.09
2018-10-21T19:37:36.371Z,99004.81
2018-10-21T19:40:05.950Z,99005.35
2018-10-21T19:42:34.663Z,99003.47
2018-10-21T19:45:03.654Z,98996.44
2018-10-21T19:47:32.406Z,99002.09
2018-10-21T19:50:01.371Z,98999.12
2018-10-21T19:52:30.142Z,99001.25
2018-10-21T19:54:58.837Z,98996.67
2018-10-21T19:57:34.387Z,98999.62
2018-10-21T20:00:03.626Z,99004.70
2018-10-21T20:02:32.351Z,99004.94
2018-10-21T20:05:01.069Z,99014.35
2018-10-21T20:07:29.831Z,99013.51
2018-10-21T20:09:58.676Z,99013.19
2018-10-21T20:12:27.538Z,99015.52
2018-10-21T20:14:56.231Z,99016.86
2018-10-21T20:17:25.074Z,99012.52
2018-10-21T20:19:53.787Z,99011.48
2018-10-21T20:22:22.514Z,99010.08
2018-10-21T20:24:51.212Z,99015.41
2018-10-21T20:27:19.949Z,99013.78
2018-10-21T20:29:48.623Z,99017.28
2018-10-21T20:32:17.410Z,99019.72
2018-10-21T20:34:46.109Z,99018.41
2018-10-21T20:37:14.899Z,99017.35
2018-10-21T20:39:50.137Z,99018.42
2018-10-21T20:42:19.356Z,99024.33
2018-10-21T20:44:48.153Z,99024.56
2018-10-21T20:47:16.921Z,99029.39
2018-10-21T20:49:45.747Z,99030.96
2018-10-21T20:52:14.624Z,99034.98
2018-10-21T20:54:48.543Z,99036.33
2018-10-21T20:57:17.347Z,99035.20
2018-10-21T20:59:47.233Z,99031.76
2018-10-21T21:02:16.830Z,99031.53
2018-10-21T21:04:45.501Z,99036.52
2018-10-21T21:07:14.304Z,99035.99
2018-10-21T21:09:43.086Z,99027.86
2018-10-21T21:12:12.020Z,99026.99
2018-10-21T21:14:40.746Z,99029.36
2018-10-21T21:17:09.507Z,99031.98
2018-10-21T21:19:38.286Z,99027.07
2018-10-21T21:22:07.007Z,99030.02
2018-10-21T21:24:35.712Z,99031.50
2018-10-21T21:27:04.550Z,99028.28
2018-10-21T21:29:33.345Z,99032.58
2018-10-21T21:32:02.077Z,99036.91
2018-10-21T21:34:30.880Z,99030.69
2018-10-21T21:36:59.765Z,99023.98
2018-10-21T21:39:28.801Z,99023.98
2018-10-21T21:41:57.557Z,99025.77
2018-10-21T21:44:26.382Z,99029.48
2018-10-21T21:46:55.121Z,99024.30
2018-10-21T21:49:23.839Z,99021.15
2018-10-21T21:51:52.573Z,99028.85
2018-10-21T21:54:21.256Z,99022.61
2018-10-21T21:56:49.963Z,99017.42
2018-10-21T21:59:18.621Z,99021.71
2018-10-21T22:01:47.415Z,99025.55
2018-10-21T22:04:16.130Z,99025.61
2018-10-21T22:06:44.797Z,99023.39
2018-10-21T22:09:14.058Z,99025.99
2018-10-21T22:11:42.810Z,99026.63
2018-10-21T22:14:11.726Z,99024.38
2018-10-21T22:16:40.446Z,99024.10
2018-10-21T22:19:09.621Z,99022.87
2018-10-21T22:21:39.007Z,99029.30
2018-10-21T22:24:09.068Z,99020.36
2018-10-21T22:26:37.915Z,99027.67
2018-10-21T22:29:07.247Z,99023.58
2018-10-21T22:31:35.986Z,99022.52
2018-10-21T22:34:04.998Z,99017.22
2018-10-21T22:36:33.935Z,99021.58
2018-10-21T22:39:02.728Z,99021.88
2018-10-21T22:41:31.442Z,99021.80
2018-10-21T22:44:00.227Z,99018.05
2018-10-21T22:46:28.921Z,99018.72
2018-10-21T22:48:57.558Z,99019.16
2018-10-21T22:51:26.369Z,99016.80
2018-10-21T22:53:55.390Z,99020.75
2018-10-21T22:56:24.074Z,99016.70
2018-10-21T22:58:52.797Z,99024.11
2018-10-21T23:01:21.545Z,99014.75
2018-10-21T23:03:50.209Z,99013.08
2018-10-21T23:06:19.087Z,99013.83
2018-10-21T23:08:47.963Z,99011.40
2018-10-21T23:11:16.720Z,99015.17
2018-10-21T23:13:45.441Z,99010.64
2018-10-21T23:16:14.318Z,99007.31
2018-10-21T23:18:43.263Z,99003.14
2018-10-21T23:21:12.058Z,99008.61
2018-10-21T23:23:40.929Z,99005.40
2018-10-21T23:26:09.637Z,99002.27
2018-10-21T23:28:38.385Z,99004.78
2018-10-21T23:31:07.257Z,99000.59
2018-10-21T23:33:35.929Z,99000.63
2018-10-21T23:36:05.063Z,99002.13
2018-10-21T23:38:34.333Z,99001.72
2018-10-21T23:41:03.066Z,99006.46
2018-10-21T23:43:31.850Z,99004.73
2018-10-21T23:46:00.556Z,99007.04
2018-10-21T23:48:29.254Z,99006.61
2018-10-21T23:50:57.937Z,99000.09
2018-10-21T23:53:26.786Z,98998.82
2018-10-21T23:55:55.575Z,99005.80
2018-10-21T23:58:24.326Z,99004.80
